Auburntown, TN

1:58 AM CDT on October 31, 2014 (GMT -0500)
Commerce | Change Station
CLOSE
Current Station
Personal Weather Station
Location: Watertown, TN
Elevation: 614 ft
Nearby Weather Stations
Active Advisory: Freeze Watch

Elev 614 ft 36.13 °N, 86.12 °W | Updated 13 minutes ago

Overcast
Overcast
41.4 °F
Feels Like 41 °F
N
0.0
Wind Variable Wind from SE

Today
High -- | Low -- °F
--% Chance of Precip.
Yesterday
High -- | Low -- °F
Precip. -- in
7:05 AM 5:49 PM
First Quarter, 52% visible
Pressure 30.06 in
Visibility 10.0 miles
Clouds Few 7500 ft
Mostly Cloudy 9000 ft
Windchill 41 °F
Dew Point 41 °F
Humidity 99%
Rainfall 0.00 in
Snow Depth Not available.
UV 0 out of 12
Pollen .90 out of 12
Air Quality Not available.
Flu Activity Not available.
METAR KMQY 310556Z AUTO 00000KT 10SM FEW075 BKN090 09/07 A3003 RMK AO2 58009 T00880072 10094 20061 401660027 SLP179

More Conditions Fewer Conditions

Pressure 30.06 in
Visibility 10.0 miles
Clouds Few 7500 ft
Mostly Cloudy 9000 ft
Windchill 41 °F
Dew Point 41 °F
Humidity 99%
Rainfall 0.00 in
Snow Depth Not available.
UV 0 out of 12
Pollen .90 out of 12
Air Quality Not available.
Flu Activity Not available.
METAR KMQY 310556Z AUTO 00000KT 10SM FEW075 BKN090 09/07 A3003 RMK AO2 58009 T00880072 10094 20061 401660027 SLP179

More Conditions Fewer Conditions

10-Day Weather Forecast

Almanac

Astronomy

Oct. 31, 2014 Rise Set
Actual Time
Civil Twilight
Nautical Twilight
Astronomical Twilight
Moon
Length of Visible Light
Length of Day
Tomorrow will be .
, % of the Moon is Illuminated

Today's Extremes

State Highs State Lows

Community

WunderPhotos

Upload Photos

1,766,571 photos uploaded!

WunderBlogs® & News

Nearby

Air Quality

  Air Quality AQ Index Pollutant
Not available.

Snow Depth

Station Depth Elevation

Earthquake Activity

City Distance Mag. Time & Date
Minimum magnitude displayed is 2.5.

Coastal Water Temperatures

Place Temperature

Nearby Weather Stations